Time;durP1;ratioP1;P1;durP2;ratioP2;P2;SDS_P1;SDS_P2;PMS_P1;PMS_P2;Temp;Humidity;BMP_temperature;BMP_pressure;BME280_temperature;BME280_humidity;BME280_pressure;Samples;Min_cycle;Max_cycle;Signal;HPM_P1;HPM_P2
2023/01/21 00:02:40;;;;;;;11.30;8.30;;;;;;;-1.17;99.37;99472.92;450167;1251;142245;-64
2023/01/21 00:12:46;;;;;;;11.60;7.10;;;;;;;-1.23;99.43;99480.59;446769;1251;144880;-65
2023/01/21 00:22:53;;;;;;;10.80;7.10;;;;;;;-1.28;99.43;99484.63;449974;1252;145982;-64
2023/01/21 00:32:59;;;;;;;9.80;6.90;;;;;;;-1.30;99.49;99493.23;448679;1252;145409;-65
2023/01/21 00:43:05;;;;;;;11.70;7.90;;;;;;;-1.35;99.15;99494.00;432896;1256;142332;-64
2023/01/21 00:53:11;;;;;;;10.80;7.60;;;;;;;-1.39;99.20;99483.25;441488;1252;142362;-63
2023/01/21 01:03:17;;;;;;;9.50;7.20;;;;;;;-1.46;99.08;99498.13;450112;1252;144464;-64
2023/01/21 01:13:23;;;;;;;10.00;8.00;;;;;;;-1.53;99.13;99494.82;449585;1252;210952;-64
2023/01/21 01:23:29;;;;;;;10.50;6.20;;;;;;;-1.56;99.17;99481.98;450215;1251;202225;-64
2023/01/21 01:33:35;;;;;;;9.70;6.40;;;;;;;-1.54;99.11;99467.86;449389;1251;142746;-64
2023/01/21 01:43:57;;;;;;;9.50;7.20;;;;;;;-1.52;99.54;99444.33;450176;1251;143128;-64
2023/01/21 01:54:04;;;;;;;14.80;9.60;;;;;;;-1.53;99.81;99444.17;450147;1251;143377;-64
2023/01/21 02:04:17;;;;;;;10.90;8.20;;;;;;;-1.55;99.75;99437.32;444721;1251;142693;-65
2023/01/21 02:14:23;;;;;;;11.90;8.60;;;;;;;-1.57;99.98;99439.42;449718;1252;142434;-65
2023/01/21 02:25:05;;;;;;;11.00;7.90;;;;;;;-1.63;100.00;99434.88;435919;1252;145246;-65
2023/01/21 02:35:18;;;;;;;9.40;6.80;;;;;;;-1.71;100.00;99418.00;433277;1252;142584;-64
2023/01/21 02:45:32;;;;;;;10.90;8.40;;;;;;;-1.75;100.00;99416.02;439632;1251;188063;-64
2023/01/21 02:55:38;;;;;;;7.80;5.60;;;;;;;-1.75;100.00;99412.09;438464;1252;189402;-64
2023/01/21 03:06:15;;;;;;;8.70;6.50;;;;;;;-1.77;100.00;99397.69;435314;1251;142783;-63
2023/01/21 03:26:56;;;;;;;10.00;6.30;;;;;;;-1.85;100.00;99379.98;434697;1255;142638;-64
2023/01/21 03:37:07;;;;;;;10.20;7.80;;;;;;;-1.87;100.00;99365.59;434852;1251;197488;-63
2023/01/21 03:47:23;;;;;;;11.00;7.30;;;;;;;-1.90;100.00;99355.88;442168;1252;145751;-64
2023/01/21 03:57:29;;;;;;;10.50;7.80;;;;;;;-1.91;100.00;99336.33;437385;1252;143396;-64
2023/01/21 04:07:34;;;;;;;9.50;7.10;;;;;;;-1.95;100.00;99325.23;435952;1255;141872;-63
2023/01/21 04:17:40;;;;;;;8.30;5.80;;;;;;;-2.00;100.00;99306.79;440508;1251;142308;-63
2023/01/21 04:27:46;;;;;;;7.20;5.80;;;;;;;-2.02;100.00;99308.88;432988;1254;142235;-64
2023/01/21 04:37:52;;;;;;;7.00;4.60;;;;;;;-2.05;100.00;99294.85;439392;1252;143688;-64
2023/01/21 04:47:57;;;;;;;7.00;5.80;;;;;;;-2.09;100.00;99279.16;434607;1252;144906;-63
2023/01/21 04:58:03;;;;;;;6.50;5.10;;;;;;;-2.13;100.00;99251.29;435150;1252;143077;-63
2023/01/21 05:08:09;;;;;;;6.30;5.10;;;;;;;-2.16;100.00;99241.38;436971;1252;143862;-64
2023/01/21 05:18:15;;;;;;;6.30;5.30;;;;;;;-2.18;100.00;99245.35;441440;1251;142179;-63
2023/01/21 05:28:21;;;;;;;6.90;6.00;;;;;;;-2.19;100.00;99277.10;435547;1251;147150;-63
2023/01/21 05:38:27;;;;;;;6.30;4.70;;;;;;;-2.19;100.00;99309.86;437487;1251;155840;-64
2023/01/21 05:48:33;;;;;;;4.60;3.70;;;;;;;-2.20;100.00;99292.89;433573;1255;144110;-63
2023/01/21 05:58:39;;;;;;;4.80;3.70;;;;;;;-2.21;100.00;99300.63;438323;1252;142248;-63
2023/01/21 06:08:45;;;;;;;5.50;4.20;;;;;;;-2.23;100.00;99297.08;440737;1250;142804;-63
2023/01/21 06:18:50;;;;;;;;;;;;;;;-2.23;100.00;99287.45;438261;1251;143983;-63
2023/01/21 06:28:57;;;;;;;7.10;4.40;;;;;;;-2.23;100.00;99284.36;440353;1251;130438;-63
2023/01/21 06:39:03;;;;;;;7.30;5.90;;;;;;;-2.21;100.00;99291.01;434878;1252;142610;-62
2023/01/21 06:49:09;;;;;;;7.00;5.60;;;;;;;-2.19;100.00;99290.65;436242;1252;148248;-62
2023/01/21 06:59:15;;;;;;;5.70;4.40;;;;;;;-2.17;100.00;99296.11;437049;1252;142888;-60
2023/01/21 07:09:21;;;;;;;8.20;4.70;;;;;;;-2.16;100.00;99294.36;443909;1251;142404;-61
2023/01/21 07:19:26;;;;;;;6.20;5.60;;;;;;;-2.10;100.00;99296.66;450428;1251;144710;-61
2023/01/21 07:29:32;;;;;;;6.20;4.60;;;;;;;-2.07;100.00;99301.08;440088;1251;143484;-61
2023/01/21 07:39:38;;;;;;;5.00;4.40;;;;;;;-2.05;100.00;99290.77;449654;1252;143351;-59
2023/01/21 07:49:44;;;;;;;6.30;5.00;;;;;;;-2.01;100.00;99292.40;450230;1251;143690;-62
2023/01/21 07:59:50;;;;;;;7.20;5.10;;;;;;;-1.98;100.00;99282.21;450401;1252;143358;-60
2023/01/21 08:09:56;;;;;;;4.40;4.00;;;;;;;-1.92;100.00;99277.14;449667;1253;142345;-61
2023/01/21 08:20:02;;;;;;;3.90;3.40;;;;;;;-1.89;100.00;99266.80;450529;1251;142998;-60
2023/01/21 08:30:10;;;;;;;4.30;3.50;;;;;;;-1.94;100.00;99271.52;450275;1251;142200;-61
2023/01/21 08:40:16;;;;;;;5.50;4.90;;;;;;;-1.95;100.00;99273.78;449704;1251;143443;-61
2023/01/21 08:50:22;;;;;;;6.00;4.70;;;;;;;-1.88;100.00;99281.02;450389;1252;142524;-61
2023/01/21 09:00:28;;;;;;;4.50;4.10;;;;;;;-1.76;100.00;99286.13;449690;1252;144973;-60
2023/01/21 09:21:03;;;;;;;5.60;4.20;;;;;;;-1.58;100.00;99289.21;435898;1255;142603;-60
2023/01/21 09:31:11;;;;;;;4.90;3.90;;;;;;;-1.58;100.00;99285.77;449588;1253;144759;-60
2023/01/21 09:41:23;;;;;;;5.00;4.50;;;;;;;-1.50;100.00;99289.93;439495;1255;144858;-59
2023/01/21 09:51:42;;;;;;;5.50;4.80;;;;;;;-1.45;100.00;99294.81;438945;1252;142639;-60
2023/01/21 10:01:49;;;;;;;4.60;4.00;;;;;;;-1.43;100.00;99295.29;436971;1255;143845;-62
2023/01/21 10:12:15;;;;;;;4.10;3.80;;;;;;;-1.36;100.00;99298.07;450511;1251;142403;-63
2023/01/21 10:22:25;;;;;;;4.80;4.30;;;;;;;-1.30;100.00;99299.69;449804;1251;210869;-63
2023/01/21 10:32:32;;;;;;;4.40;4.00;;;;;;;-1.20;100.00;99302.05;440206;1251;144004;-64
2023/01/21 10:42:54;;;;;;;4.50;4.10;;;;;;;-1.10;100.00;99310.96;444131;1255;142758;-61
2023/01/21 10:53:06;;;;;;;4.90;3.80;;;;;;;-1.00;100.00;99313.84;433758;1253;143556;-62
2023/01/21 11:03:18;;;;;;;5.70;4.40;;;;;;;-0.89;100.00;99319.80;433925;1255;144056;-62
2023/01/21 11:13:24;;;;;;;4.90;4.00;;;;;;;-0.56;100.00;99309.45;445664;1255;209280;-63
2023/01/21 11:23:33;;;;;;;4.80;4.20;;;;;;;-0.18;100.00;99315.80;450012;1251;142210;-63
2023/01/21 11:33:41;;;;;;;4.20;3.80;;;;;;;0.22;100.00;99314.61;441765;1252;188627;-63
2023/01/21 11:43:49;;;;;;;3.70;2.90;;;;;;;0.16;100.00;99317.70;447388;1251;142566;-63
2023/01/21 11:54:18;;;;;;;3.50;3.20;;;;;;;0.09;100.00;99322.87;450151;1252;142355;-62
2023/01/21 12:04:25;;;;;;;3.70;2.70;;;;;;;0.23;100.00;99332.16;438660;1251;207323;-63
2023/01/21 12:14:44;;;;;;;3.20;2.80;;;;;;;0.51;100.00;99334.37;450190;1254;143529;-64
2023/01/21 12:25:06;;;;;;;4.30;3.30;;;;;;;0.75;100.00;99324.94;449381;1251;142879;-64
2023/01/21 12:35:17;;;;;;;3.30;3.00;;;;;;;0.87;100.00;99335.98;450230;1251;141550;-63
2023/01/21 12:45:28;;;;;;;4.20;3.70;;;;;;;1.04;100.00;99341.70;449327;1251;161351;-63
2023/01/21 12:55:48;;;;;;;3.90;3.50;;;;;;;0.82;100.00;99347.66;450321;1250;142357;-63
2023/01/21 13:06:01;;;;;;;6.70;3.30;;;;;;;0.71;100.00;99360.88;450184;1251;144342;-64
2023/01/21 13:16:10;;;;;;;3.80;3.10;;;;;;;0.62;100.00;99388.00;449378;1251;143556;-63
2023/01/21 13:26:24;;;;;;;5.80;3.80;;;;;;;0.48;100.00;99402.14;450150;1251;142043;-63
2023/01/21 13:36:45;;;;;;;6.90;5.00;;;;;;;0.24;100.00;99407.39;449480;1251;142320;-62
2023/01/21 13:47:03;;;;;;;5.40;3.60;;;;;;;0.05;100.00;99420.05;438460;1251;142212;-62
2023/01/21 13:57:38;;;;;;;5.40;4.70;;;;;;;-0.02;100.00;99431.03;448167;1251;142785;-62
2023/01/21 14:07:50;;;;;;;5.40;3.80;;;;;;;-0.08;100.00;99451.84;445363;1251;197710;-63
2023/01/21 14:18:12;;;;;;;7.70;4.60;;;;;;;-0.16;100.00;99467.85;450262;1251;143525;-63
2023/01/21 14:28:24;;;;;;;6.50;5.80;;;;;;;-0.23;100.00;99473.86;449212;1251;143129;-62
2023/01/21 14:38:42;;;;;;;9.80;7.00;;;;;;;-0.32;100.00;99492.27;449854;1251;142956;-62
2023/01/21 14:48:59;;;;;;;6.50;5.70;;;;;;;-0.39;100.00;99516.67;449551;1250;142540;-64
2023/01/21 14:59:16;;;;;;;11.50;7.30;;;;;;;-0.43;100.00;99536.36;449993;1251;141369;-62
2023/01/21 15:09:26;;;;;;;7.30;6.20;;;;;;;-0.45;100.00;99555.13;449463;1251;142766;-62
2023/01/21 15:19:34;;;;;;;9.20;7.90;;;;;;;-0.48;100.00;99570.15;450282;1250;142688;-62
2023/01/21 15:29:41;;;;;;;11.80;9.10;;;;;;;-0.49;100.00;99584.63;443660;1250;159021;-61
2023/01/21 15:39:51;;;;;;;11.60;8.90;;;;;;;-0.52;100.00;99591.05;446398;1251;143887;-62
2023/01/21 15:50:07;;;;;;;14.30;10.70;;;;;;;-0.51;100.00;99599.96;450113;1251;142212;-61
2023/01/21 16:00:30;;;;;;;13.40;10.00;;;;;;;-0.49;100.00;99613.00;450074;1251;142860;-62
2023/01/21 16:10:46;;;;;;;11.40;9.50;;;;;;;-0.46;100.00;99638.40;449929;1251;212373;-61
2023/01/21 16:20:55;;;;;;;13.40;9.70;;;;;;;-0.43;100.00;99658.30;450263;1251;143182;-61
2023/01/21 16:31:04;;;;;;;14.00;11.50;;;;;;;-0.41;100.00;99674.95;449323;1250;142576;-63
2023/01/21 16:41:26;;;;;;;16.00;12.50;;;;;;;-0.43;100.00;99697.84;443092;1251;145178;-62
2023/01/21 16:51:33;;;;;;;15.70;11.30;;;;;;;-0.43;100.00;99711.63;449278;1252;144510;-62
2023/01/21 17:01:40;;;;;;;14.40;10.10;;;;;;;-0.42;100.00;99727.27;450091;1251;142932;-62
2023/01/21 17:11:48;;;;;;;15.00;11.80;;;;;;;-0.45;100.00;99746.56;450005;1251;147142;-62
2023/01/21 17:22:00;;;;;;;17.30;11.80;;;;;;;-0.46;100.00;99761.20;434407;1252;142444;-63
2023/01/21 17:32:22;;;;;;;25.20;18.50;;;;;;;-0.49;100.00;99770.88;450213;1252;142939;-64
2023/01/21 17:42:37;;;;;;;23.00;15.50;;;;;;;-0.50;100.00;99798.77;439070;1251;142509;-62
2023/01/21 17:52:49;;;;;;;25.00;16.60;;;;;;;-0.51;100.00;99819.23;433423;1254;143162;-61
2023/01/21 18:02:55;;;;;;;24.40;17.20;;;;;;;-0.53;100.00;99831.82;437779;1251;143909;-62
2023/01/21 18:13:01;;;;;;;28.70;16.80;;;;;;;-0.54;100.00;99850.06;449286;1252;143066;-63
2023/01/21 18:23:10;;;;;;;29.20;17.50;;;;;;;-0.50;100.00;99866.86;450087;1251;143376;-63
2023/01/21 18:33:16;;;;;;;28.10;18.90;;;;;;;-0.47;100.00;99885.06;450149;1251;142558;-63
2023/01/21 18:43:22;;;;;;;25.40;17.70;;;;;;;-0.47;100.00;99892.10;449824;1251;212791;-64
2023/01/21 18:53:28;;;;;;;32.00;20.90;;;;;;;-0.42;100.00;99906.13;450239;1251;143163;-62
2023/01/21 19:03:34;;;;;;;33.10;21.70;;;;;;;-0.41;100.00;99922.64;449382;1251;142653;-63
2023/01/21 19:13:40;;;;;;;29.20;18.00;;;;;;;-0.37;100.00;99932.91;450205;1251;143928;-62
2023/01/21 19:23:46;;;;;;;29.90;18.70;;;;;;;-0.39;100.00;99952.55;450260;1251;146641;-62
2023/01/21 19:33:52;;;;;;;30.40;17.90;;;;;;;-0.38;100.00;99971.98;449519;1250;143146;-62
2023/01/21 19:43:58;;;;;;;33.40;18.50;;;;;;;-0.38;100.00;99985.21;450152;1250;142666;-63
2023/01/21 19:54:04;;;;;;;36.40;19.80;;;;;;;-0.38;100.00;99991.58;450265;1250;144608;-62
2023/01/21 20:04:10;;;;;;;28.90;19.10;;;;;;;-0.34;100.00;100003.93;436999;1251;142551;-63
2023/01/21 20:14:16;;;;;;;29.80;19.00;;;;;;;-0.38;100.00;100014.98;450208;1250;144954;-63
2023/01/21 20:24:22;;;;;;;27.50;18.60;;;;;;;-0.37;100.00;100029.77;445206;1251;142893;-62
2023/01/21 20:34:30;;;;;;;28.90;17.00;;;;;;;-0.37;100.00;100047.83;435985;1251;142293;-63
2023/01/21 20:44:36;;;;;;;30.70;20.60;;;;;;;-0.39;100.00;100059.38;450297;1250;144217;-63
2023/01/21 20:54:41;;;;;;;32.10;21.80;;;;;;;-0.40;100.00;100081.93;444470;1250;143686;-61
2023/01/21 21:04:47;;;;;;;35.10;21.10;;;;;;;-0.36;100.00;100084.63;450142;1251;142777;-62
2023/01/21 21:14:53;;;;;;;33.50;20.00;;;;;;;-0.31;100.00;100096.09;450245;1251;142786;-62
2023/01/21 21:24:59;;;;;;;34.30;20.40;;;;;;;-0.25;100.00;100120.48;449398;1252;142996;-62
2023/01/21 21:35:05;;;;;;;24.10;17.30;;;;;;;-0.19;100.00;100133.31;445652;1250;145122;-62
2023/01/21 21:45:12;;;;;;;29.00;18.00;;;;;;;-0.21;100.00;100150.20;450236;1250;143377;-62
2023/01/21 21:55:18;;;;;;;;;;;;;;;-0.26;100.00;100163.33;449331;1251;143346;-62
2023/01/21 22:05:24;;;;;;;31.40;18.80;;;;;;;-0.28;100.00;100176.25;450396;1251;129881;-62
2023/01/21 22:15:30;;;;;;;30.00;19.70;;;;;;;-0.29;100.00;100179.20;449417;1251;144219;-60
2023/01/21 22:25:35;;;;;;;32.00;21.10;;;;;;;-0.32;100.00;100189.38;450263;1251;142878;-61
2023/01/21 22:35:43;;;;;;;29.80;18.80;;;;;;;-0.32;100.00;100187.29;450295;1251;142618;-62
2023/01/21 22:45:50;;;;;;;29.20;18.80;;;;;;;-0.32;100.00;100188.34;449496;1251;144125;-62
2023/01/21 22:55:58;;;;;;;32.30;18.70;;;;;;;-0.33;100.00;100195.74;450272;1251;145773;-62
2023/01/21 23:06:08;;;;;;;31.10;17.10;;;;;;;-0.32;100.00;100210.19;450281;1251;142953;-62
2023/01/21 23:16:17;;;;;;;27.40;16.00;;;;;;;-0.32;100.00;100216.03;446293;1252;143801;-62
2023/01/21 23:26:23;;;;;;;31.30;19.00;;;;;;;-0.30;100.00;100224.63;444388;1252;143394;-62
2023/01/21 23:36:29;;;;;;;38.60;23.80;;;;;;;-0.31;100.00;100227.03;443480;1252;143573;-62
2023/01/21 23:46:35;;;;;;;35.80;20.90;;;;;;;-0.31;100.00;100227.02;441164;1251;142069;-61
2023/01/21 23:56:41;;;;;;;37.60;19.20;;;;;;;-0.33;100.00;100237.55;450274;1251;143477;-62
